Jamaica — CUGW5 — position and weather

sailwx.info

Track history (hours):
 
Tides and Currents Weather Stations Pressure Air Temp Water Temp Dewpoint Dewpoint Depression Visibility Wind Speed Wind Dir Waves Ship Positions

Jamaica

Last reported at 2017-Sep-21 03:27 UTC. Time now 2017-Sep-24 10:39 UTC.
Position N 39°17' W 009°47'.

Type: Fishing. MMSI: 263405550.

Date/timePositionNaut miles runAvg speedWind from/ knotsBaromVisibWave heightAir tempDewpointWater temp
2017-Sep-21 03:27N 39°17' W 009°47'4 7.8
2017-Sep-21 02:59N 39°18' W 009°43'5 8.1
2017-Sep-21 02:23N 39°18' W 009°36'3 8.1
2017-Sep-21 01:58N 39°19' W 009°32'  
2017-Sep-13 09:47N 39°20' W 009°24'3 8.1
2017-Sep-13 09:27N 39°17' W 009°26'4 8.0
2017-Sep-13 09:00N 39°14' W 009°28'4 8.1
2017-Sep-13 08:30N 39°11' W 009°30'4 8.0
2017-Sep-13 08:00N 39°07' W 009°31'4 8.0
2017-Sep-13 07:30N 39°03' W 009°32'4 7.8
2017-Sep-13 07:00N 38°59' W 009°33'4 7.7
2017-Sep-13 06:30N 38°55' W 009°34'4 7.9
2017-Sep-13 06:00N 38°51' W 009°34'4 7.7
2017-Sep-13 05:30N 38°47' W 009°34'4 7.5
2017-Sep-13 05:00N 38°44' W 009°34'4 7.1
2017-Sep-13 04:30N 38°40' W 009°32'3 7.0
2017-Sep-13 04:00N 38°38' W 009°29'4 7.5
2017-Sep-13 03:31N 38°35' W 009°26'4 8.0
2017-Sep-13 03:00N 38°32' W 009°23'4 8.2
2017-Sep-13 02:30N 38°29' W 009°20'4 8.1
2017-Sep-13 02:00N 38°26' W 009°16'6 7.4
2017-Sep-13 01:10N 38°25' W 009°08'2 8.9
2017-Sep-13 00:59N 38°26' W 009°06'1 1.3
2017-Sep-13 00:29N 38°26' W 009°07'0 0.0
2017-Sep-13 00:00N 38°26' W 009°07'0 0.0
2017-Sep-12 23:30N 38°26' W 009°07'0 0.0
2017-Sep-12 23:00N 38°26' W 009°07'0 0.0
2017-Sep-12 22:31N 38°26' W 009°07'0 0.0
2017-Sep-12 22:01N 38°26' W 009°07'0 0.0
2017-Sep-12 21:31N 38°26' W 009°07'0 0.0
2017-Sep-12 21:01N 38°26' W 009°07'0 0.0
2017-Sep-12 20:30N 38°26' W 009°07'0 0.2
2017-Sep-12 20:01N 38°26' W 009°07'4 6.1
2017-Sep-12 19:23N 38°24' W 009°10'3 9.1
2017-Sep-12 19:01N 38°24' W 009°15'5 9.0
2017-Sep-12 18:29N 38°25' W 009°21'5 9.0
2017-Sep-12 17:58N 38°26' W 009°26'4 9.0
2017-Sep-12 17:30N 38°27' W 009°31'5 9.3
2017-Sep-12 17:00N 38°28' W 009°37'5 8.9
2017-Sep-12 16:27N 38°28' W 009°43'4 8.2
2017-Sep-12 16:00N 38°29' W 009°48'4 8.5
2017-Sep-12 15:30N 38°30' W 009°53'4 8.7
2017-Sep-12 15:00N 38°31' W 009°59'4 8.5
2017-Sep-12 14:30N 38°32' W 010°04'  
Track history (hours):
 
Tides and Currents Weather Stations Pressure Air Temp Water Temp Dewpoint Dewpoint Depression Visibility Wind Speed Wind Dir Waves Ship Positions

Jamaica

Last reported at 2017-Sep-21 03:27 UTC. Time now 2017-Sep-24 10:39 UTC.
Position N 39°17' W 009°47'.

Type: Fishing. MMSI: 263405550.

Date/timePositionNaut miles runAvg speedWind from/ knotsBaromVisibWave heightAir tempDewpointWater temp
2017-Sep-21 03:27N 39°17' W 009°47'4 7.8
2017-Sep-21 02:59N 39°18' W 009°43'5 8.1
2017-Sep-21 02:23N 39°18' W 009°36'3 8.1
2017-Sep-21 01:58N 39°19' W 009°32'  
2017-Sep-13 09:47N 39°20' W 009°24'3 8.1
2017-Sep-13 09:27N 39°17' W 009°26'4 8.0
2017-Sep-13 09:00N 39°14' W 009°28'4 8.1
2017-Sep-13 08:30N 39°11' W 009°30'4 8.0
2017-Sep-13 08:00N 39°07' W 009°31'4 8.0
2017-Sep-13 07:30N 39°03' W 009°32'4 7.8
2017-Sep-13 07:00N 38°59' W 009°33'4 7.7
2017-Sep-13 06:30N 38°55' W 009°34'4 7.9
2017-Sep-13 06:00N 38°51' W 009°34'4 7.7
2017-Sep-13 05:30N 38°47' W 009°34'4 7.5
2017-Sep-13 05:00N 38°44' W 009°34'4 7.1
2017-Sep-13 04:30N 38°40' W 009°32'3 7.0
2017-Sep-13 04:00N 38°38' W 009°29'4 7.5
2017-Sep-13 03:31N 38°35' W 009°26'4 8.0
2017-Sep-13 03:00N 38°32' W 009°23'4 8.2
2017-Sep-13 02:30N 38°29' W 009°20'4 8.1
2017-Sep-13 02:00N 38°26' W 009°16'6 7.4
2017-Sep-13 01:10N 38°25' W 009°08'2 8.9
2017-Sep-13 00:59N 38°26' W 009°06'1 1.3
2017-Sep-13 00:29N 38°26' W 009°07'0 0.0
2017-Sep-13 00:00N 38°26' W 009°07'0 0.0
2017-Sep-12 23:30N 38°26' W 009°07'0 0.0
2017-Sep-12 23:00N 38°26' W 009°07'0 0.0
2017-Sep-12 22:31N 38°26' W 009°07'0 0.0
2017-Sep-12 22:01N 38°26' W 009°07'0 0.0
2017-Sep-12 21:31N 38°26' W 009°07'0 0.0
2017-Sep-12 21:01N 38°26' W 009°07'0 0.0
2017-Sep-12 20:30N 38°26' W 009°07'0 0.2
2017-Sep-12 20:01N 38°26' W 009°07'4 6.1
2017-Sep-12 19:23N 38°24' W 009°10'3 9.1
2017-Sep-12 19:01N 38°24' W 009°15'5 9.0
2017-Sep-12 18:29N 38°25' W 009°21'5 9.0
2017-Sep-12 17:58N 38°26' W 009°26'4 9.0
2017-Sep-12 17:30N 38°27' W 009°31'5 9.3
2017-Sep-12 17:00N 38°28' W 009°37'5 8.9
2017-Sep-12 16:27N 38°28' W 009°43'4 8.2
2017-Sep-12 16:00N 38°29' W 009°48'4 8.5
2017-Sep-12 15:30N 38°30' W 009°53'4 8.7
2017-Sep-12 15:00N 38°31' W 009°59'4 8.5
2017-Sep-12 14:30N 38°32' W 010°04'  

Dump ship's entire track history